createdAt,value
2018-04-12T00:01:13.091Z,45.70
2018-04-12T00:02:13.105Z,44.60
2018-04-12T00:03:13.127Z,45.10
2018-04-12T00:04:13.147Z,44.20
2018-04-12T00:05:13.165Z,43.70
2018-04-12T00:06:13.186Z,42.80
2018-04-12T00:07:13.206Z,42.60
2018-04-12T00:08:13.225Z,42.20
2018-04-12T00:09:13.254Z,41.00
2018-04-12T00:10:13.266Z,41.40
2018-04-12T00:11:13.287Z,41.10
2018-04-12T00:12:13.305Z,43.10
2018-04-12T00:13:13.326Z,41.30
2018-04-12T00:15:57.405Z,39.00
2018-04-12T00:16:57.425Z,41.00
2018-04-12T00:17:57.446Z,41.40
2018-04-12T00:18:57.466Z,40.60
2018-04-12T00:19:57.487Z,39.60
2018-04-12T00:20:57.505Z,38.70
2018-04-12T00:21:57.526Z,39.50
2018-04-12T00:22:57.546Z,39.00
2018-04-12T00:23:57.566Z,38.50
2018-04-12T00:24:57.588Z,38.50
2018-04-12T00:25:57.607Z,38.20
2018-04-12T00:26:57.625Z,39.20
2018-04-12T00:27:57.646Z,38.40
2018-04-12T00:28:57.666Z,39.70
2018-04-12T00:29:57.686Z,37.50
2018-04-12T00:30:57.705Z,38.50
2018-04-12T00:31:57.724Z,38.10
2018-04-12T00:32:57.762Z,37.40
2018-04-12T00:33:57.766Z,37.50
2018-04-12T00:34:57.785Z,38.50
2018-04-12T00:35:57.805Z,37.10
2018-04-12T00:36:57.826Z,38.20
2018-04-12T00:37:57.846Z,38.30
2018-04-12T00:38:57.865Z,38.20
2018-04-12T00:39:57.885Z,39.10
2018-04-12T00:40:57.905Z,38.00
2018-04-12T00:41:57.926Z,37.40
2018-04-12T00:42:57.944Z,38.40
2018-04-12T00:43:57.965Z,36.90
2018-04-12T00:44:57.984Z,37.00
2018-04-12T00:45:58.005Z,37.30
2018-04-12T00:46:58.024Z,36.00
2018-04-12T00:47:58.045Z,36.60
2018-04-12T00:48:58.064Z,36.50
2018-04-12T00:49:58.086Z,36.70
2018-04-12T00:50:58.104Z,37.80
2018-04-12T00:51:58.123Z,37.50
2018-04-12T00:52:58.143Z,37.00
2018-04-12T00:53:58.164Z,35.30
2018-04-12T00:54:58.183Z,37.40
2018-04-12T00:55:58.202Z,38.20
2018-04-12T00:56:58.224Z,38.60
2018-04-12T00:57:58.246Z,37.60
2018-04-12T00:58:58.263Z,36.40
2018-04-12T00:59:58.283Z,36.10
2018-04-12T01:00:58.304Z,35.80
2018-04-12T01:01:58.325Z,36.90
2018-04-12T01:02:58.342Z,37.50
2018-04-12T01:03:58.364Z,37.60
2018-04-12T01:04:58.384Z,36.20
2018-04-12T01:05:58.404Z,36.90
2018-04-12T01:06:58.423Z,38.50
2018-04-12T01:09:42.492Z,38.50
2018-04-12T01:10:42.511Z,38.10
2018-04-12T01:11:55.332Z,38.80
2018-04-12T01:12:42.550Z,38.80
2018-04-12T01:14:28.753Z,38.00
2018-04-12T01:14:42.596Z,36.80
2018-04-12T01:15:42.616Z,37.60
2018-04-12T01:16:42.635Z,37.10
2018-04-12T01:17:42.654Z,37.70
2018-04-12T01:18:42.675Z,38.80
2018-04-12T01:19:42.694Z,37.50
2018-04-12T01:21:35.389Z,37.20
2018-04-12T01:21:42.729Z,39.00
2018-04-12T01:22:42.748Z,38.80
2018-04-12T01:23:42.769Z,37.40
2018-04-12T01:24:42.788Z,39.10
2018-04-12T01:25:42.807Z,38.50
2018-04-12T01:26:42.827Z,38.30
2018-04-12T01:27:42.847Z,38.20
2018-04-12T01:28:42.867Z,39.10
2018-04-12T01:29:42.886Z,36.90
2018-04-12T01:30:42.908Z,39.20
2018-04-12T01:32:35.730Z,38.00
2018-04-12T01:32:42.945Z,38.80
2018-04-12T01:33:43.169Z,39.40
2018-04-12T01:34:42.986Z,38.80
2018-04-12T01:35:43.956Z,39.50
2018-04-12T01:36:43.227Z,37.50
2018-04-12T01:37:43.047Z,38.50
2018-04-12T01:39:29.245Z,39.00
2018-04-12T01:39:43.086Z,38.80
2018-04-12T01:40:43.106Z,39.40
2018-04-12T01:41:43.126Z,39.60
2018-04-12T01:42:43.146Z,40.00
2018-04-12T01:43:43.166Z,39.90
2018-04-12T01:44:43.185Z,39.70
2018-04-12T01:45:43.204Z,38.30
2018-04-12T01:46:43.225Z,38.80
2018-04-12T01:47:43.245Z,38.70
2018-04-12T01:48:43.262Z,38.50
2018-04-12T01:49:43.283Z,39.10
2018-04-12T01:50:43.301Z,40.00
2018-04-12T01:51:43.323Z,40.40
2018-04-12T01:52:43.340Z,42.30
2018-04-12T01:53:43.361Z,40.00
2018-04-12T01:54:43.382Z,39.70
2018-04-12T01:55:43.402Z,41.50
2018-04-12T01:56:43.420Z,41.50
2018-04-12T01:59:43.480Z,42.40
2018-04-12T02:00:43.504Z,42.00
2018-04-12T02:01:43.518Z,41.90
2018-04-12T02:02:43.539Z,42.40
2018-04-12T02:03:43.557Z,41.10
2018-04-12T02:04:43.578Z,41.50
2018-04-12T02:07:27.651Z,44.30
2018-04-12T02:08:27.669Z,43.20
2018-04-12T02:09:27.689Z,41.80
2018-04-12T02:10:27.708Z,41.60
2018-04-12T02:11:27.730Z,42.50
2018-04-12T02:12:27.748Z,43.10
2018-04-12T02:13:27.768Z,43.00
2018-04-12T02:14:27.788Z,41.80
2018-04-12T02:15:27.809Z,42.30
2018-04-12T02:16:27.827Z,42.40
2018-04-12T02:17:27.847Z,42.60
2018-04-12T02:18:27.866Z,42.10
2018-04-12T02:19:27.885Z,43.50
2018-04-12T02:20:27.956Z,42.50
2018-04-12T02:21:27.924Z,41.40
2018-04-12T02:22:27.944Z,41.20
2018-04-12T02:23:27.963Z,43.20
2018-04-12T02:24:27.984Z,43.30
2018-04-12T02:25:28.003Z,44.40
2018-04-12T02:26:28.021Z,41.90
2018-04-12T02:27:28.041Z,43.60
2018-04-12T02:28:28.061Z,42.10
2018-04-12T02:29:28.083Z,44.20
2018-04-12T02:30:28.101Z,43.80
2018-04-12T02:31:28.123Z,45.20
2018-04-12T02:32:28.139Z,44.10
2018-04-12T02:33:28.159Z,45.20
2018-04-12T02:34:28.181Z,43.10
2018-04-12T02:35:28.198Z,43.30
2018-04-12T02:36:28.217Z,43.10
2018-04-12T02:37:28.253Z,44.00
2018-04-12T02:38:28.256Z,43.00
2018-04-12T02:39:28.276Z,43.60
2018-04-12T02:40:28.296Z,44.10
2018-04-12T02:41:28.315Z,44.10
2018-04-12T02:42:28.336Z,43.00
2018-04-12T02:43:28.354Z,43.10
2018-04-12T02:44:28.373Z,43.70
2018-04-12T02:45:28.394Z,44.70
2018-04-12T02:46:28.410Z,44.50
2018-04-12T02:47:28.434Z,43.00
2018-04-12T02:48:28.450Z,44.80
2018-04-12T02:49:28.471Z,43.80
2018-04-12T02:50:28.489Z,45.20
2018-04-12T02:51:28.501Z,43.10
2018-04-12T02:52:28.523Z,44.80
2018-04-12T02:53:28.544Z,45.00
2018-04-12T02:54:28.565Z,43.30
2018-04-12T02:55:28.581Z,44.40
2018-04-12T02:56:28.602Z,44.70
2018-04-12T02:57:28.621Z,45.10
2018-04-12T02:59:14.815Z,45.10
2018-04-12T02:59:28.656Z,44.90
2018-04-12T03:00:28.678Z,46.30
2018-04-12T03:01:28.695Z,43.60
2018-04-12T03:02:28.717Z,45.50
2018-04-12T03:03:28.740Z,44.80
2018-04-12T03:04:28.764Z,45.70
2018-04-12T03:06:30.837Z,44.80
2018-04-12T03:06:31.341Z,44.90
2018-04-12T03:08:36.874Z,46.60
2018-04-12T03:09:31.385Z,47.00
2018-04-12T03:10:31.408Z,46.90
2018-04-12T03:11:31.422Z,46.90
2018-04-12T03:12:31.444Z,45.60
2018-04-12T03:13:31.462Z,47.70
2018-04-12T03:17:31.536Z,48.60
2018-04-12T03:18:31.562Z,47.60
2018-04-12T03:19:31.574Z,49.20
2018-04-12T03:20:31.595Z,49.00
2018-04-12T03:21:31.618Z,48.40
2018-04-12T03:22:31.639Z,48.30
2018-04-12T03:23:31.657Z,48.10
2018-04-12T03:24:31.684Z,47.40
2018-04-12T03:25:31.692Z,46.90
2018-04-12T03:26:31.713Z,47.50
2018-04-12T03:27:31.729Z,49.70
2018-04-12T03:28:31.752Z,51.10
2018-04-12T03:29:31.771Z,50.90
2018-04-12T03:30:31.789Z,49.80
2018-04-12T03:31:31.810Z,51.00
2018-04-12T03:32:31.829Z,50.60
2018-04-12T03:33:31.844Z,48.60
2018-04-12T03:34:31.868Z,51.20
2018-04-12T03:35:31.886Z,52.40
2018-04-12T03:36:31.903Z,50.50
2018-04-12T03:37:31.928Z,50.50
2018-04-12T03:38:31.943Z,52.60
2018-04-12T03:39:31.970Z,51.40
2018-04-12T03:40:31.979Z,50.10
2018-04-12T03:41:31.996Z,51.30
2018-04-12T03:42:32.069Z,51.50
2018-04-12T03:43:32.034Z,51.20
2018-04-12T03:44:32.052Z,51.40
2018-04-12T03:45:32.085Z,51.80
2018-04-12T03:46:32.090Z,50.50
2018-04-12T03:47:32.118Z,50.70
2018-04-12T03:48:32.153Z,52.80
2018-04-12T03:49:32.158Z,53.80
2018-04-12T03:50:32.238Z,55.70
2018-04-12T03:51:32.186Z,52.00
2018-04-12T03:52:32.210Z,52.20
2018-04-12T03:53:32.230Z,53.70
2018-04-12T03:54:32.246Z,56.00
2018-04-12T03:55:32.270Z,53.60
2018-04-12T03:56:32.288Z,55.30
2018-04-12T03:57:32.303Z,53.10
2018-04-12T03:58:32.327Z,52.40
2018-04-12T03:59:32.344Z,54.10
2018-04-12T04:00:32.362Z,54.00
2018-04-12T04:01:32.384Z,54.30
2018-04-12T04:04:32.442Z,53.60
2018-04-12T04:05:32.464Z,54.10
2018-04-12T04:06:32.482Z,55.90
2018-04-12T04:07:32.501Z,54.80
2018-04-12T04:08:32.515Z,56.80
2018-04-12T04:09:32.539Z,56.30
2018-04-12T04:10:32.554Z,56.60
2018-04-12T04:11:32.576Z,58.60
2018-04-12T04:12:32.597Z,56.20
2018-04-12T04:13:32.611Z,58.90
2018-04-12T04:14:32.676Z,54.10
2018-04-12T04:15:32.649Z,58.50
2018-04-12T04:16:32.665Z,58.60
2018-04-12T04:17:32.693Z,55.30
2018-04-12T04:18:32.712Z,56.40
2018-04-12T04:19:32.728Z,62.50
2018-04-12T04:20:32.743Z,55.40
2018-04-12T04:21:32.764Z,59.20
2018-04-12T04:22:32.785Z,58.40
2018-04-12T04:23:32.801Z,62.00
2018-04-12T04:24:32.817Z,59.60
2018-04-12T04:25:32.839Z,58.70
2018-04-12T04:26:32.857Z,59.20
2018-04-12T04:27:32.883Z,59.00
2018-04-12T04:28:32.897Z,59.80
2018-04-12T04:29:32.921Z,59.00
2018-04-12T04:30:32.941Z,59.20
2018-04-12T04:31:32.955Z,59.20
2018-04-12T04:32:32.981Z,57.80
2018-04-12T04:33:32.989Z,57.50
2018-04-12T04:34:33.009Z,57.40
2018-04-12T04:35:33.032Z,59.10
2018-04-12T04:36:33.047Z,59.20
2018-04-12T04:37:33.070Z,56.80
2018-04-12T04:38:33.088Z,57.90
2018-04-12T04:39:33.111Z,56.00
2018-04-12T04:40:33.132Z,60.80
2018-04-12T04:41:33.148Z,56.70
2018-04-12T04:42:33.165Z,58.20
2018-04-12T04:43:33.187Z,60.30
2018-04-12T04:45:06.579Z,60.70
2018-04-12T04:45:33.228Z,57.50
2018-04-12T04:46:33.239Z,57.60
2018-04-12T04:47:33.266Z,58.00
2018-04-12T04:48:33.277Z,60.90
2018-04-12T04:49:33.295Z,61.20
2018-04-12T04:50:33.325Z,59.30
2018-04-12T04:51:33.340Z,54.50
2018-04-12T04:52:33.356Z,59.50
2018-04-12T04:53:33.380Z,57.40
2018-04-12T04:54:33.391Z,58.60
2018-04-12T04:55:33.414Z,58.30
2018-04-12T04:56:33.437Z,67.30
2018-04-12T04:57:33.452Z,59.70
2018-04-12T04:58:33.473Z,60.30
2018-04-12T04:59:33.490Z,55.70
2018-04-12T05:00:33.508Z,56.00
2018-04-12T05:01:33.532Z,59.40
2018-04-12T05:02:33.548Z,59.70
2018-04-12T05:03:33.565Z,59.80
2018-04-12T05:04:33.595Z,61.90
2018-04-12T05:05:33.605Z,61.40
2018-04-12T05:06:33.629Z,61.20
2018-04-12T05:07:33.647Z,63.50
2018-04-12T05:08:33.661Z,57.80
2018-04-12T05:09:33.686Z,60.30
2018-04-12T05:10:33.701Z,63.50
2018-04-12T05:11:33.718Z,61.00
2018-04-12T05:12:33.750Z,59.80
2018-04-12T05:13:33.756Z,58.20
2018-04-12T05:14:33.785Z,63.50
2018-04-12T05:15:33.865Z,61.70
2018-04-12T05:16:33.819Z,66.40
2018-04-12T05:17:33.843Z,64.60
2018-04-12T05:18:33.855Z,64.40
2018-04-12T05:19:33.876Z,63.50
2018-04-12T05:20:33.899Z,64.40
2018-04-12T05:21:33.916Z,67.40
2018-04-12T05:22:33.933Z,68.30
2018-04-12T05:23:33.954Z,67.80
2018-04-12T05:24:33.973Z,65.40
2018-04-12T05:25:33.996Z,65.60
2018-04-12T05:26:34.019Z,66.10
2018-04-12T05:27:34.035Z,72.40
2018-04-12T05:28:34.047Z,64.40
2018-04-12T05:29:34.070Z,63.20
2018-04-12T05:30:34.091Z,66.70
2018-04-12T05:31:34.106Z,62.60
2018-04-12T05:32:34.131Z,67.20
2018-04-12T05:33:34.144Z,62.90
2018-04-12T05:34:34.171Z,66.90
2018-04-12T05:35:34.182Z,65.40
2018-04-12T05:37:07.574Z,65.70
2018-04-12T05:37:34.221Z,67.20
2018-04-12T05:39:34.269Z,62.60
2018-04-12T05:40:34.285Z,65.90
2018-04-12T05:41:34.303Z,65.90
2018-04-12T05:42:34.329Z,65.30
2018-04-12T05:43:34.344Z,66.40
2018-04-12T05:44:34.367Z,63.40
2018-04-12T05:45:34.382Z,64.60
2018-04-12T05:46:34.399Z,63.50
2018-04-12T05:47:34.417Z,60.80
2018-04-12T05:48:34.448Z,64.90
2018-04-12T05:49:34.461Z,62.00
2018-04-12T05:50:34.473Z,64.00
2018-04-12T05:51:34.502Z,62.70
2018-04-12T05:52:34.512Z,62.70
2018-04-12T05:53:34.535Z,61.40
2018-04-12T05:54:34.558Z,62.40
2018-04-12T05:55:34.572Z,59.60
2018-04-12T05:56:34.598Z,61.70
2018-04-12T05:57:34.617Z,63.50
2018-04-12T05:58:34.629Z,64.30
2018-04-12T05:59:34.661Z,62.60
2018-04-12T06:00:34.674Z,60.60
2018-04-12T06:01:34.696Z,57.20
2018-04-12T06:02:34.707Z,60.50
2018-04-12T06:03:34.734Z,60.00
2018-04-12T06:04:34.746Z,61.00
2018-04-12T06:05:34.766Z,55.30
2018-04-12T06:06:34.793Z,57.30
2018-04-12T06:07:34.806Z,62.30
2018-04-12T06:08:34.834Z,62.10
2018-04-12T06:09:34.855Z,57.40
2018-04-12T06:10:34.871Z,57.90
2018-04-12T06:11:34.893Z,52.20
2018-04-12T06:12:34.905Z,56.60
2018-04-12T06:13:34.924Z,60.20
2018-04-12T06:14:34.964Z,58.00
2018-04-12T06:15:34.965Z,56.80
2018-04-12T06:16:34.987Z,57.10
2018-04-12T06:17:35.003Z,59.20
2018-04-12T06:18:35.032Z,56.70
2018-04-12T06:19:35.049Z,57.30
2018-04-12T06:20:35.066Z,55.20
2018-04-12T06:21:35.133Z,54.20
2018-04-12T06:22:35.102Z,57.60
2018-04-12T06:23:35.166Z,55.20
2018-04-12T06:24:35.194Z,60.10
2018-04-12T06:25:35.170Z,57.90
2018-04-12T06:26:35.182Z,57.30
2018-04-12T06:27:35.209Z,57.00
2018-04-12T06:28:35.284Z,57.90
2018-04-12T06:29:35.305Z,57.00
2018-04-12T06:30:35.364Z,56.50
2018-04-12T06:31:35.297Z,55.30
2018-04-12T06:32:35.305Z,57.30
2018-04-12T06:33:35.319Z,54.90
2018-04-12T06:34:35.349Z,56.10
2018-04-12T06:35:35.367Z,53.90
2018-04-12T06:36:35.393Z,54.90
2018-04-12T06:37:35.406Z,55.40
2018-04-12T06:38:35.419Z,57.70
2018-04-12T06:39:35.443Z,54.20
2018-04-12T06:40:35.466Z,56.10
2018-04-12T06:41:35.479Z,53.50
2018-04-12T06:42:35.507Z,55.10
2018-04-12T06:43:35.519Z,53.20
2018-04-12T06:44:35.550Z,53.40
2018-04-12T06:45:35.569Z,51.80
2018-04-12T06:46:35.578Z,54.40
2018-04-12T06:47:35.606Z,55.20
2018-04-12T06:48:35.619Z,54.80
2018-04-12T06:49:35.644Z,55.30
2018-04-12T06:50:35.663Z,50.50
2018-04-12T06:51:35.685Z,56.20
2018-04-12T06:52:35.699Z,52.00
2018-04-12T06:53:35.722Z,54.80
2018-04-12T06:54:35.740Z,57.60
2018-04-12T06:55:35.757Z,54.40
2018-04-12T06:56:35.787Z,55.20
2018-04-12T06:57:35.799Z,52.80
2018-04-12T06:58:35.824Z,54.40
2018-04-12T06:59:35.845Z,53.20
2018-04-12T07:00:35.863Z,57.50
2018-04-12T07:01:35.882Z,54.90
2018-04-12T07:02:35.900Z,57.00
2018-04-12T07:03:35.924Z,56.90
2018-04-12T07:04:35.947Z,55.00
2018-04-12T07:05:35.961Z,52.60
2018-04-12T07:06:35.980Z,55.70
2018-04-12T07:07:36.004Z,55.00
2018-04-12T07:08:36.023Z,51.80
2018-04-12T07:09:36.038Z,53.40
2018-04-12T07:10:36.063Z,55.80
2018-04-12T07:11:36.082Z,52.00
2018-04-12T07:12:36.133Z,54.30
2018-04-12T07:13:36.123Z,48.20
2018-04-12T07:14:36.144Z,51.40
2018-04-12T07:15:36.156Z,50.90
2018-04-12T07:16:36.185Z,46.40
2018-04-12T07:17:36.198Z,49.90
2018-04-12T07:18:36.225Z,50.30
2018-04-12T07:19:36.244Z,46.50
2018-04-12T07:20:36.260Z,46.10
2018-04-12T07:21:36.278Z,49.00
2018-04-12T07:22:36.301Z,48.30
2018-04-12T07:23:36.319Z,48.70
2018-04-12T07:24:36.341Z,45.80
2018-04-12T07:25:36.361Z,44.50
2018-04-12T07:26:36.376Z,47.30
2018-04-12T07:27:36.401Z,45.30
2018-04-12T07:28:36.417Z,44.70
2018-04-12T07:29:36.439Z,46.00
2018-04-12T07:30:36.520Z,46.10
2018-04-12T07:31:49.283Z,42.40
2018-04-12T07:32:36.516Z,42.20
2018-04-12T07:33:36.527Z,41.80
2018-04-12T07:34:36.541Z,41.80
2018-04-12T07:35:36.552Z,41.40
2018-04-12T07:36:36.581Z,43.90
2018-04-12T07:37:36.600Z,43.40
2018-04-12T07:38:36.615Z,39.40
2018-04-12T07:39:36.638Z,40.00
2018-04-12T07:40:36.679Z,41.00
2018-04-12T07:41:36.675Z,41.30
2018-04-12T07:42:36.701Z,42.70
2018-04-12T07:43:36.763Z,45.20
2018-04-12T07:44:36.739Z,42.70
2018-04-12T07:45:36.757Z,42.60
2018-04-12T07:46:36.783Z,42.60
2018-04-12T07:47:36.801Z,39.60
2018-04-12T07:48:36.824Z,41.50
2018-04-12T07:49:36.842Z,42.10
2018-04-12T07:50:36.861Z,40.50
2018-04-12T07:51:36.878Z,40.00
2018-04-12T07:52:36.903Z,39.10
2018-04-12T07:53:36.924Z,38.70
2018-04-12T07:54:36.938Z,42.20
2018-04-12T07:55:36.961Z,42.30
2018-04-12T07:56:37.034Z,38.70
2018-04-12T07:58:10.420Z,38.80
2018-04-12T07:58:37.046Z,38.70
2018-04-12T07:59:37.047Z,39.60
2018-04-12T08:00:37.068Z,38.70
2018-04-12T08:01:37.080Z,39.00
2018-04-12T08:02:37.109Z,38.60
2018-04-12T08:03:37.122Z,39.80
2018-04-12T08:04:37.147Z,39.50
2018-04-12T08:05:37.170Z,41.70
2018-04-12T08:06:37.182Z,39.30
2018-04-12T08:07:37.212Z,38.70
2018-04-12T08:08:37.224Z,40.50
2018-04-12T08:09:37.253Z,40.40
2018-04-12T08:10:37.264Z,42.00
2018-04-12T08:11:37.296Z,39.80
2018-04-12T08:12:37.320Z,37.90
2018-04-12T08:13:37.328Z,37.30
2018-04-12T08:14:37.355Z,41.00
2018-04-12T08:15:37.368Z,38.30
2018-04-12T08:16:37.395Z,39.40
2018-04-12T08:17:37.413Z,41.00
2018-04-12T08:18:37.431Z,40.00
2018-04-12T08:19:37.464Z,36.70
2018-04-12T08:20:37.476Z,37.20
2018-04-12T08:21:37.538Z,39.60
2018-04-12T08:22:37.522Z,39.10
2018-04-12T08:23:37.559Z,35.60
2018-04-12T08:24:37.566Z,36.60
2018-04-12T08:25:37.577Z,38.80
2018-04-12T08:26:37.622Z,38.90
2018-04-12T08:27:37.628Z,37.70
2018-04-12T08:28:37.753Z,38.20
2018-04-12T08:29:37.706Z,35.20
2018-04-12T08:30:37.708Z,36.20
2018-04-12T08:31:37.760Z,37.00
2018-04-12T08:32:37.780Z,49.30
2018-04-12T08:33:37.816Z,35.10
2018-04-12T08:34:37.862Z,35.40
2018-04-12T08:35:37.854Z,36.90
2018-04-12T08:36:37.863Z,39.80
2018-04-12T08:37:37.865Z,35.20
2018-04-12T08:38:37.935Z,33.70
2018-04-12T08:39:37.906Z,34.60
2018-04-12T08:40:37.921Z,33.80
2018-04-12T08:41:37.952Z,33.20
2018-04-12T08:42:37.972Z,34.50
2018-04-12T08:43:38.052Z,35.00
2018-04-12T08:44:37.994Z,35.60
2018-04-12T08:45:38.024Z,32.20
2018-04-12T08:46:38.034Z,32.70
2018-04-12T08:47:38.046Z,33.80
2018-04-12T08:48:38.068Z,34.10
2018-04-12T08:49:38.099Z,33.80
2018-04-12T08:50:38.117Z,33.70
2018-04-12T08:51:38.135Z,36.10
2018-04-12T08:52:38.157Z,32.60
2018-04-12T08:53:38.174Z,34.20
2018-04-12T08:54:38.196Z,33.40
2018-04-12T08:55:38.217Z,35.20
2018-04-12T08:56:38.243Z,32.50
2018-04-12T08:57:38.265Z,33.10
2018-04-12T08:58:38.284Z,33.50
2018-04-12T08:59:38.308Z,33.80
2018-04-12T09:00:38.324Z,32.10
2018-04-12T09:01:38.353Z,32.70
2018-04-12T09:02:38.379Z,32.70
2018-04-12T09:03:38.390Z,31.70
2018-04-12T09:04:38.416Z,34.00
2018-04-12T09:05:38.429Z,32.00
2018-04-12T09:06:38.457Z,31.90
2018-04-12T09:07:38.471Z,34.60
2018-04-12T09:08:38.500Z,32.00
2018-04-12T09:09:38.520Z,32.80
2018-04-12T09:10:38.533Z,33.60
2018-04-12T09:11:38.564Z,32.90
2018-04-12T09:12:38.582Z,31.90
2018-04-12T09:13:38.599Z,34.90
2018-04-12T09:14:38.624Z,32.40
2018-04-12T09:15:38.691Z,31.70
2018-04-12T09:16:38.668Z,31.10
2018-04-12T09:17:38.686Z,31.30
2018-04-12T09:18:38.704Z,31.10
2018-04-12T09:19:38.728Z,30.80
2018-04-12T09:20:38.749Z,30.30
2018-04-12T09:21:38.767Z,31.10
2018-04-12T09:22:38.833Z,30.40
2018-04-12T09:23:39.005Z,32.40
2018-04-12T09:24:38.883Z,32.60
2018-04-12T09:25:39.032Z,31.90
2018-04-12T09:26:38.889Z,31.30
2018-04-12T09:27:38.943Z,29.60
2018-04-12T09:28:38.973Z,30.20
2018-04-12T09:29:39.054Z,30.00
2018-04-12T09:30:38.960Z,30.10
2018-04-12T09:31:38.985Z,29.30
2018-04-12T09:32:39.034Z,29.20
2018-04-12T09:33:39.032Z,29.60
2018-04-12T09:34:39.052Z,30.10
2018-04-12T09:35:39.072Z,29.10
2018-04-12T09:36:39.139Z,29.80
2018-04-12T09:37:39.120Z,28.90
2018-04-12T09:38:39.140Z,29.30
2018-04-12T09:39:39.166Z,29.50
2018-04-12T09:40:39.275Z,28.70
2018-04-12T09:41:39.207Z,28.80
2018-04-12T09:42:39.238Z,28.90
2018-04-12T09:43:39.260Z,28.10
2018-04-12T09:44:39.281Z,28.40
2018-04-12T09:45:39.302Z,27.20
2018-04-12T09:46:39.322Z,28.90
2018-04-12T09:47:39.353Z,28.60
2018-04-12T09:48:39.372Z,28.90
2018-04-12T09:49:39.414Z,28.50
2018-04-12T09:50:39.429Z,28.70
2018-04-12T09:51:39.441Z,27.40
2018-04-12T09:52:39.465Z,28.10
2018-04-12T09:53:39.503Z,28.50
2018-04-12T09:54:39.517Z,28.70
2018-04-12T09:55:39.545Z,29.00
2018-04-12T09:56:39.564Z,28.30
2018-04-12T09:57:39.584Z,28.90
2018-04-12T09:58:39.617Z,29.30
2018-04-12T09:59:39.634Z,28.30
2018-04-12T10:00:39.657Z,28.00
2018-04-12T10:01:39.685Z,27.80
2018-04-12T10:02:39.705Z,28.20
2018-04-12T10:03:39.733Z,28.80
2018-04-12T10:04:39.758Z,27.30
2018-04-12T10:05:39.777Z,28.20
2018-04-12T10:06:39.805Z,28.50
2018-04-12T10:07:39.827Z,27.70
2018-04-12T10:08:39.852Z,28.00
2018-04-12T10:09:39.900Z,28.60
2018-04-12T10:10:39.907Z,27.60
2018-04-12T10:11:39.928Z,27.30
2018-04-12T10:12:39.947Z,27.30
2018-04-12T10:13:39.973Z,26.40
2018-04-12T10:14:40.023Z,27.50
2018-04-12T10:15:40.024Z,26.90
2018-04-12T10:16:40.068Z,28.00
2018-04-12T10:17:40.073Z,26.30
2018-04-12T10:18:40.102Z,26.20
2018-04-12T10:19:40.125Z,27.50
2018-04-12T10:20:40.150Z,26.70
2018-04-12T10:21:40.231Z,26.20
2018-04-12T10:22:40.200Z,27.70
2018-04-12T10:23:40.229Z,26.80
2018-04-12T10:24:40.253Z,27.30
2018-04-12T10:25:40.275Z,27.40
2018-04-12T10:26:40.298Z,26.30
2018-04-12T10:27:40.330Z,26.50
2018-04-12T10:28:40.377Z,26.50
2018-04-12T10:29:40.377Z,26.20
2018-04-12T10:30:40.402Z,26.00
2018-04-12T10:31:40.430Z,25.60
2018-04-12T10:32:40.457Z,26.70
2018-04-12T10:33:40.474Z,25.40
2018-04-12T10:34:40.508Z,26.30
2018-04-12T10:35:40.532Z,24.90
2018-04-12T10:36:40.551Z,25.10
2018-04-12T10:37:40.584Z,24.40
2018-04-12T10:38:40.622Z,24.30
2018-04-12T10:39:40.632Z,23.90
2018-04-12T10:40:40.655Z,23.40
2018-04-12T10:41:40.742Z,23.80
2018-04-12T10:42:40.708Z,23.50
2018-04-12T10:43:40.743Z,24.00
2018-04-12T10:44:40.771Z,24.10
2018-04-12T10:45:40.789Z,23.50
2018-04-12T10:46:40.828Z,23.40
2018-04-12T10:47:40.845Z,24.90
2018-04-12T10:48:40.878Z,22.80
2018-04-12T10:49:40.898Z,23.30
2018-04-12T10:50:40.937Z,23.80
2018-04-12T10:51:40.953Z,23.40
2018-04-12T10:52:40.984Z,24.10
2018-04-12T10:53:41.015Z,23.70
2018-04-12T10:54:41.035Z,23.60
2018-04-12T10:55:41.092Z,23.90
2018-04-12T10:56:41.099Z,23.00
2018-04-12T10:57:41.117Z,23.10
2018-04-12T10:58:41.149Z,22.70
2018-04-12T10:59:41.179Z,22.10
2018-04-12T11:00:41.202Z,23.20
2018-04-12T11:01:41.238Z,22.20
2018-04-12T11:04:25.349Z,22.60
2018-04-12T11:06:24.604Z,22.00
2018-04-12T11:06:25.471Z,21.70
2018-04-12T11:07:25.455Z,23.30
2018-04-12T11:08:25.470Z,22.80
2018-04-12T11:09:25.508Z,22.60
2018-04-12T11:10:25.599Z,22.20
2018-04-12T11:11:25.577Z,22.80
2018-04-12T11:12:25.625Z,23.20
2018-04-12T11:13:26.096Z,23.20
2018-04-12T11:14:25.709Z,23.60
2018-04-12T11:15:25.726Z,24.10
2018-04-12T11:16:25.750Z,24.70
2018-04-12T11:17:25.784Z,24.50
2018-04-12T11:18:25.899Z,25.40
2018-04-12T11:19:25.877Z,25.50
2018-04-12T11:20:25.813Z,24.40
2018-04-12T11:21:25.886Z,25.00
2018-04-12T11:22:25.922Z,24.30
2018-04-12T11:23:25.902Z,25.70
2018-04-12T11:24:25.932Z,25.70
2018-04-12T11:25:25.937Z,24.30
2018-04-12T11:26:26.018Z,25.50
2018-04-12T11:27:26.047Z,26.40
2018-04-12T11:28:26.062Z,25.20
2018-04-12T11:29:26.042Z,25.90
2018-04-12T11:30:26.075Z,25.80
2018-04-12T11:31:26.132Z,25.80
2018-04-12T11:32:26.152Z,25.10
2018-04-12T11:33:26.147Z,24.90
2018-04-12T11:34:26.210Z,25.80
2018-04-12T11:35:26.205Z,24.50
2018-04-12T11:36:26.235Z,25.10
2018-04-12T11:37:26.261Z,25.30
2018-04-12T11:38:26.287Z,24.90
2018-04-12T11:39:26.357Z,27.10
2018-04-12T11:40:26.342Z,26.60
2018-04-12T11:41:26.372Z,27.40
2018-04-12T11:42:26.447Z,27.10
2018-04-12T11:43:26.421Z,26.80
2018-04-12T11:44:26.453Z,27.60
2018-04-12T11:45:26.477Z,26.90
2018-04-12T11:46:26.509Z,27.40
2018-04-12T11:47:26.538Z,27.30
2018-04-12T11:48:26.558Z,26.80
2018-04-12T11:49:26.599Z,27.00
2018-04-12T11:50:26.615Z,27.00
2018-04-12T11:51:26.645Z,27.50
2018-04-12T11:52:26.675Z,27.00
2018-04-12T11:53:26.693Z,27.10
2018-04-12T11:54:26.726Z,28.10
2018-04-12T11:55:26.757Z,27.70
2018-04-12T11:56:26.774Z,27.70
2018-04-12T11:57:26.810Z,27.00
2018-04-12T11:58:26.833Z,27.60
2018-04-12T11:59:26.856Z,28.20
2018-04-12T12:00:26.890Z,27.60
2018-04-12T12:01:26.917Z,27.70
2018-04-12T12:02:26.946Z,28.40
2018-04-12T12:03:26.966Z,27.60
2018-04-12T12:04:26.997Z,29.30
2018-04-12T12:05:27.015Z,28.80
2018-04-12T12:06:27.048Z,28.90
2018-04-12T12:07:27.077Z,29.40
2018-04-12T12:08:27.097Z,28.70
2018-04-12T12:09:27.136Z,28.40
2018-04-12T12:10:27.160Z,29.60
2018-04-12T12:11:27.180Z,29.70
2018-04-12T12:12:27.221Z,29.80
2018-04-12T12:13:27.237Z,29.10
2018-04-12T12:14:27.267Z,31.40
2018-04-12T12:15:27.292Z,31.10
2018-04-12T12:16:27.314Z,30.60
2018-04-12T12:17:27.346Z,31.30
2018-04-12T12:18:27.374Z,30.80
2018-04-12T12:19:27.402Z,31.00
2018-04-12T12:20:27.478Z,32.20
2018-04-12T12:21:27.491Z,31.30
2018-04-12T12:22:27.529Z,32.10
2018-04-12T12:23:27.547Z,31.30
2018-04-12T12:26:11.706Z,31.60
2018-04-12T12:27:11.676Z,31.10
2018-04-12T12:28:11.702Z,30.80
2018-04-12T12:29:11.670Z,30.50
2018-04-12T12:30:11.704Z,30.40
2018-04-12T12:31:11.729Z,31.40
2018-04-12T12:32:11.748Z,31.30
2018-04-12T12:33:11.817Z,31.20
2018-04-12T12:34:11.804Z,31.80
2018-04-12T12:35:11.831Z,31.70
2018-04-12T12:36:11.862Z,31.00
2018-04-12T12:37:11.916Z,31.60
2018-04-12T12:38:11.970Z,29.10
2018-04-12T12:39:11.938Z,30.20
2018-04-12T12:40:11.975Z,32.00
2018-04-12T12:41:12.046Z,31.80
2018-04-12T12:42:12.026Z,30.80
2018-04-12T12:43:12.053Z,30.80
2018-04-12T12:44:12.082Z,31.50
2018-04-12T12:45:12.105Z,31.10
2018-04-12T12:46:12.141Z,31.20
2018-04-12T12:47:12.164Z,32.00
2018-04-12T12:48:12.199Z,32.40
2018-04-12T12:49:12.220Z,31.10
2018-04-12T12:50:12.256Z,33.40
2018-04-12T12:51:12.386Z,32.50
2018-04-12T12:52:12.312Z,33.30
2018-04-12T12:53:12.334Z,32.10
2018-04-12T12:54:12.365Z,33.10
2018-04-12T12:55:12.391Z,34.10
2018-04-12T12:56:12.426Z,37.30
2018-04-12T12:57:12.451Z,31.80
2018-04-12T12:58:12.477Z,33.60
2018-04-12T12:59:12.510Z,35.90
2018-04-12T13:00:12.541Z,32.00
2018-04-12T13:01:12.561Z,33.20
2018-04-12T13:02:12.594Z,33.70
2018-04-12T13:03:12.619Z,32.70
2018-04-12T13:04:12.652Z,33.30
2018-04-12T13:05:12.677Z,32.10
2018-04-12T13:06:12.708Z,32.30
2018-04-12T13:07:12.736Z,33.10
2018-04-12T13:08:12.765Z,33.80
2018-04-12T13:09:12.793Z,33.40
2018-04-12T13:10:12.818Z,34.10
2018-04-12T13:11:12.849Z,32.80